Time;durP1;ratioP1;P1;durP2;ratioP2;P2;SDS_P1;SDS_P2;PMS_P1;PMS_P2;Temp;Humidity;BMP_temperature;BMP_pressure;BME280_temperature;BME280_humidity;BME280_pressure;Samples;Min_cycle;Max_cycle;Signal;HPM_P1;HPM_P2
2023/04/30 00:01:08;;;;;;;2.63;1.70;;;;;;;;;;4954608;29;20206;-92
2023/04/30 00:03:41;;;;;;;1.60;1.50;;;;;;;;;;4964120;29;20632;-93
2023/04/30 00:06:11;;;;;;;2.77;1.97;;;;;;;;;;4954545;29;20225;-92
2023/04/30 00:08:47;;;;;;;1.77;1.67;;;;;;;;;;4953351;29;20257;-93
2023/04/30 00:11:24;;;;;;;3.90;1.83;;;;;;;;;;4952797;28;20225;-92
2023/04/30 00:14:02;;;;;;;2.20;1.90;;;;;;;;;;4956293;28;20673;-92
2023/04/30 00:16:32;;;;;;;4.93;1.83;;;;;;;;;;4956301;29;20218;-94
2023/04/30 00:19:03;;;;;;;1.83;1.23;;;;;;;;;;4957426;28;20217;-92
2023/04/30 00:21:33;;;;;;;1.77;1.67;;;;;;;;;;4957368;29;20273;-93
2023/04/30 00:24:03;;;;;;;1.83;1.50;;;;;;;;;;4955810;28;20238;-92
2023/04/30 00:26:35;;;;;;;3.53;1.50;;;;;;;;;;4956345;29;20198;-92
2023/04/30 00:29:05;;;;;;;1.30;1.20;;;;;;;;;;4964543;28;20213;-91
2023/04/30 00:31:35;;;;;;;1.73;1.63;;;;;;;;;;4975851;28;20194;-93
2023/04/30 00:34:03;;;;;;;2.00;1.17;;;;;;;;;;4976254;28;20301;-93
2023/04/30 00:36:32;;;;;;;2.00;1.50;;;;;;;;;;4976734;28;20296;-93
2023/04/30 00:39:06;;;;;;;2.73;1.33;;;;;;;;;;4975522;28;20225;-94
2023/04/30 00:41:37;;;;;;;0.90;0.90;;;;;;;;;;4975856;28;20288;-94
2023/04/30 00:44:13;;;;;;;1.23;1.23;;;;;;;;;;4975555;28;20300;-93
2023/04/30 00:46:48;;;;;;;1.40;1.30;;;;;;;;;;4976604;28;20337;-93
2023/04/30 00:49:20;;;;;;;1.17;1.17;;;;;;;;;;4976015;28;20205;-91
2023/04/30 00:51:57;;;;;;;1.73;1.63;;;;;;;;;;4975761;28;20198;-93
2023/04/30 00:54:30;;;;;;;2.20;1.27;;;;;;;;;;4975440;28;20221;-93
2023/04/30 00:56:58;;;;;;;5.13;1.93;;;;;;;;;;4976742;28;20213;-92
2023/04/30 00:59:28;;;;;;;0.83;0.73;;;;;;;;;;4975763;28;20257;-90
2023/04/30 01:01:59;;;;;;;1.30;1.30;;;;;;;;;;4974543;28;20261;-92
2023/04/30 01:04:30;;;;;;;5.70;1.70;;;;;;;;;;4975774;28;20202;-94
2023/04/30 01:07:02;;;;;;;1.00;1.00;;;;;;;;;;4975576;28;20273;-92
2023/04/30 01:09:30;;;;;;;3.60;1.23;;;;;;;;;;4974430;28;20206;-92
2023/04/30 01:12:10;;;;;;;1.17;1.07;;;;;;;;;;4975780;28;20667;-93
2023/04/30 01:14:46;;;;;;;1.60;0.93;;;;;;;;;;4974289;28;20198;-91
2023/04/30 01:17:23;;;;;;;1.60;1.57;;;;;;;;;;4974675;28;20256;-92
2023/04/30 01:19:51;;;;;;;1.20;1.20;;;;;;;;;;4975705;28;20229;-93
2023/04/30 01:22:26;;;;;;;1.43;0.60;;;;;;;;;;4974877;28;20222;-91
2023/04/30 01:25:08;;;;;;;1.60;1.20;;;;;;;;;;4993051;28;20245;-92
2023/04/30 01:27:54;;;;;;;0.63;0.63;;;;;;;;;;4992285;28;20198;-93
2023/04/30 01:30:24;;;;;;;3.50;0.73;;;;;;;;;;4959547;29;20730;-94
2023/04/30 01:32:54;;;;;;;3.50;1.50;;;;;;;;;;4957193;29;20234;-92
2023/04/30 01:35:38;;;;;;;2.90;1.60;;;;;;;;;;4956413;29;20258;-93
2023/04/30 01:38:11;;;;;;;1.03;1.03;;;;;;;;;;4956267;29;20218;-92
2023/04/30 01:40:51;;;;;;;1.20;0.97;;;;;;;;;;4958174;29;20207;-91
2023/04/30 01:43:31;;;;;;;0.80;0.80;;;;;;;;;;4956073;29;20202;-92
2023/04/30 01:46:12;;;;;;;1.73;1.63;;;;;;;;;;4958648;29;20293;-91
2023/04/30 01:48:43;;;;;;;1.33;1.23;;;;;;;;;;4964627;29;20199;-93
2023/04/30 01:51:18;;;;;;;1.13;0.93;;;;;;;;;;4965109;29;20282;-91
2023/04/30 01:53:46;;;;;;;2.50;1.37;;;;;;;;;;4960877;29;20233;-92
2023/04/30 01:56:20;;;;;;;1.03;0.87;;;;;;;;;;4959950;29;20668;-91
2023/04/30 01:58:49;;;;;;;5.23;1.50;;;;;;;;;;4968086;28;20221;-92
2023/04/30 02:01:32;;;;;;;4.00;1.90;;;;;;;;;;4976619;28;20295;-92
2023/04/30 02:03:59;;;;;;;1.73;1.63;;;;;;;;;;4975406;28;20214;-94
2023/04/30 02:06:28;;;;;;;2.43;1.20;;;;;;;;;;4975456;28;20288;-92
2023/04/30 02:09:01;;;;;;;1.90;1.80;;;;;;;;;;4974121;28;20206;-94
2023/04/30 02:11:29;;;;;;;3.50;1.87;;;;;;;;;;4975015;28;20222;-93
2023/04/30 02:13:57;;;;;;;1.43;1.33;;;;;;;;;;4974753;28;20244;-91
2023/04/30 02:16:28;;;;;;;1.57;1.30;;;;;;;;;;4974842;28;20202;-93
2023/04/30 02:19:00;;;;;;;1.77;1.47;;;;;;;;;;4980640;28;20194;-93
2023/04/30 02:21:28;;;;;;;2.67;1.27;;;;;;;;;;4984383;28;20305;-92
2023/04/30 02:23:58;;;;;;;2.10;1.63;;;;;;;;;;4981028;28;20690;-92
2023/04/30 02:26:34;;;;;;;1.73;1.63;;;;;;;;;;4997663;28;20214;-92
2023/04/30 02:29:02;;;;;;;1.90;1.30;;;;;;;;;;4983604;28;20241;-90
2023/04/30 02:31:30;;;;;;;1.40;1.30;;;;;;;;;;4975412;28;20202;-94
2023/04/30 02:34:01;;;;;;;1.53;1.43;;;;;;;;;;4974548;28;20288;-92
2023/04/30 02:36:35;;;;;;;4.43;2.37;;;;;;;;;;4974394;28;20286;-93
2023/04/30 02:39:07;;;;;;;2.03;1.80;;;;;;;;;;4975307;28;20205;-93
2023/04/30 02:41:38;;;;;;;1.03;0.90;;;;;;;;;;4982882;28;20209;-94
2023/04/30 02:44:08;;;;;;;1.57;1.47;;;;;;;;;;4985371;28;20222;-92
2023/04/30 02:46:40;;;;;;;2.43;1.00;;;;;;;;;;4985490;28;20210;-92
2023/04/30 02:49:10;;;;;;;1.10;1.10;;;;;;;;;;4978249;28;20660;-89
2023/04/30 02:51:37;;;;;;;1.17;1.17;;;;;;;;;;4973475;28;20206;-94
2023/04/30 02:54:09;;;;;;;2.23;1.30;;;;;;;;;;4974487;28;20225;-92
2023/04/30 02:56:38;;;;;;;2.27;1.13;;;;;;;;;;4975590;28;20388;-92
2023/04/30 02:59:09;;;;;;;1.63;1.53;;;;;;;;;;4969440;28;20250;-91
2023/04/30 03:01:43;;;;;;;1.70;1.60;;;;;;;;;;4973557;28;20255;-93
2023/04/30 03:04:13;;;;;;;4.73;1.77;;;;;;;;;;4974801;28;20205;-91
2023/04/30 03:06:41;;;;;;;1.63;1.53;;;;;;;;;;4955994;29;20221;-92
2023/04/30 03:09:09;;;;;;;2.57;2.37;;;;;;;;;;4955086;29;20214;-92
2023/04/30 03:11:48;;;;;;;2.40;1.63;;;;;;;;;;4954101;29;20221;-93
2023/04/30 03:14:16;;;;;;;1.83;1.57;;;;;;;;;;4953362;29;20253;-93
2023/04/30 03:16:44;;;;;;;1.60;1.50;;;;;;;;;;4953916;29;20203;-91
2023/04/30 03:19:24;;;;;;;2.23;2.03;;;;;;;;;;4953511;29;20206;-92
2023/04/30 03:21:57;;;;;;;1.90;1.80;;;;;;;;;;4953347;29;20210;-92
2023/04/30 03:24:31;;;;;;;2.03;1.93;;;;;;;;;;4954728;28;20301;-90
2023/04/30 03:27:00;;;;;;;1.87;1.77;;;;;;;;;;4953467;29;20214;-92
2023/04/30 03:29:31;;;;;;;1.83;1.73;;;;;;;;;;4966182;28;20216;-92
2023/04/30 03:32:00;;;;;;;2.17;1.87;;;;;;;;;;4973511;28;20218;-93
2023/04/30 03:34:33;;;;;;;1.53;1.10;;;;;;;;;;4972531;28;20238;-93
2023/04/30 03:37:02;;;;;;;1.70;1.60;;;;;;;;;;4973319;28;20581;-91
2023/04/30 03:39:30;;;;;;;2.30;2.00;;;;;;;;;;4973542;28;20260;-91
2023/04/30 03:41:58;;;;;;;1.80;1.80;;;;;;;;;;4971825;28;20733;-92
2023/04/30 03:44:28;;;;;;;3.27;2.73;;;;;;;;;;4972558;28;20206;-92
2023/04/30 03:47:00;;;;;;;1.97;1.87;;;;;;;;;;4972945;28;20619;-92
2023/04/30 03:49:33;;;;;;;3.17;2.30;;;;;;;;;;4972274;28;20202;-91
2023/04/30 03:52:01;;;;;;;1.50;1.40;;;;;;;;;;4969240;28;20219;-92
2023/04/30 03:54:32;;;;;;;3.50;1.70;;;;;;;;;;4964355;28;20316;-92
2023/04/30 03:57:03;;;;;;;4.00;2.10;;;;;;;;;;4972084;28;20201;-94
2023/04/30 03:59:32;;;;;;;1.57;1.47;;;;;;;;;;4972415;28;20576;-90
2023/04/30 04:02:03;;;;;;;1.93;1.83;;;;;;;;;;4973276;28;20209;-92
2023/04/30 04:04:34;;;;;;;1.63;1.60;;;;;;;;;;4972879;28;20816;-91
2023/04/30 04:07:06;;;;;;;2.67;1.70;;;;;;;;;;4973263;28;20204;-91
2023/04/30 04:09:35;;;;;;;3.97;2.23;;;;;;;;;;4972612;28;20208;-92
2023/04/30 04:12:04;;;;;;;2.90;2.53;;;;;;;;;;4971833;28;20221;-92
2023/04/30 04:14:31;;;;;;;1.67;1.57;;;;;;;;;;4971689;28;20229;-93
2023/04/30 04:17:05;;;;;;;2.37;2.00;;;;;;;;;;4976529;28;20216;-94
2023/04/30 04:19:37;;;;;;;1.80;1.70;;;;;;;;;;4977864;28;20194;-93
2023/04/30 04:22:15;;;;;;;2.90;2.27;;;;;;;;;;4993610;28;20209;-91
2023/04/30 04:24:46;;;;;;;2.03;1.93;;;;;;;;;;4988504;28;20380;-92
2023/04/30 04:27:25;;;;;;;4.33;2.67;;;;;;;;;;4985019;28;20214;-92
2023/04/30 04:29:54;;;;;;;3.87;2.50;;;;;;;;;;4985145;28;20298;-94
2023/04/30 04:32:26;;;;;;;2.93;2.60;;;;;;;;;;4986032;28;20203;-92
2023/04/30 04:35:11;;;;;;;4.10;2.00;;;;;;;;;;4991585;28;20233;-93
2023/04/30 04:37:44;;;;;;;2.57;2.40;;;;;;;;;;4995314;28;20291;-92
2023/04/30 04:40:25;;;;;;;3.73;2.27;;;;;;;;;;4995178;28;20206;-93
2023/04/30 04:42:58;;;;;;;2.60;2.13;;;;;;;;;;4983225;28;20197;-92
2023/04/30 04:45:35;;;;;;;2.97;2.73;;;;;;;;;;4977588;28;20226;-92
2023/04/30 04:48:12;;;;;;;3.20;2.80;;;;;;;;;;4973502;28;20315;-91
2023/04/30 04:50:43;;;;;;;3.23;2.43;;;;;;;;;;4973973;28;20284;-92
2023/04/30 04:53:19;;;;;;;3.27;2.90;;;;;;;;;;4974030;28;20201;-94
2023/04/30 04:55:52;;;;;;;3.07;2.77;;;;;;;;;;4973641;28;20196;-92
2023/04/30 04:58:23;;;;;;;3.10;2.90;;;;;;;;;;4955413;28;20247;-92
2023/04/30 05:00:51;;;;;;;3.50;2.93;;;;;;;;;;4957142;29;20206;-91
2023/04/30 05:03:23;;;;;;;5.90;2.93;;;;;;;;;;4956704;29;20206;-92
2023/04/30 05:05:53;;;;;;;2.90;2.70;;;;;;;;;;4957563;29;20561;-93
2023/04/30 05:08:23;;;;;;;2.47;2.23;;;;;;;;;;4957959;29;20563;-92
2023/04/30 05:11:05;;;;;;;3.23;2.93;;;;;;;;;;4956853;29;20246;-92
2023/04/30 05:13:33;;;;;;;4.27;2.93;;;;;;;;;;4966973;28;20209;-92
2023/04/30 05:16:31;;;;;;;4.00;3.07;;;;;;;;;;4977393;28;20194;-91
2023/04/30 05:19:08;;;;;;;2.67;2.27;;;;;;;;;;4976562;28;20207;-92
2023/04/30 05:21:38;;;;;;;4.50;3.07;;;;;;;;;;4977433;28;20218;-92
2023/04/30 05:24:08;;;;;;;4.00;3.43;;;;;;;;;;4976687;28;20241;-92
2023/04/30 05:26:39;;;;;;;14.63;3.00;;;;;;;;;;4975458;28;20708;-92
2023/04/30 05:29:38;;;;;;;3.40;3.17;;;;;;;;;;4975951;28;20225;-91
2023/04/30 05:32:09;;;;;;;2.77;2.57;;;;;;;;;;4925310;28;20198;-93
2023/04/30 05:34:39;;;;;;;3.57;3.27;;;;;;;;;;4975900;28;20232;-92
2023/04/30 05:37:13;;;;;;;4.27;3.93;;;;;;;;;;4977162;28;20241;-93
2023/04/30 05:39:47;;;;;;;3.77;3.47;;;;;;;;;;4975881;28;20196;-92
2023/04/30 05:42:33;;;;;;;2.70;2.60;;;;;;;;;;4976204;28;20194;-91
2023/04/30 05:45:16;;;;;;;;;;;;;;;;;;;;;
2023/04/30 05:51:32;;;;;;;;;;;;;;;;;;;;;
2023/04/30 06:06:26;;;;;;;3.33;3.03;;;;;;;;;;4956655;28;20211;-93
2023/04/30 06:09:01;;;;;;;4.53;3.43;;;;;;;;;;4961669;28;20652;-92
2023/04/30 06:11:49;;;;;;;4.13;2.90;;;;;;;;;;4966303;28;20227;-91
2023/04/30 06:14:44;;;;;;;2.57;2.47;;;;;;;;;;4976233;28;20255;-93
2023/04/30 06:17:23;;;;;;;3.13;2.93;;;;;;;;;;4961548;28;20212;-93
2023/04/30 06:19:59;;;;;;;3.53;3.23;;;;;;;;;;4956242;28;20289;-93
2023/04/30 06:28:08;;;;;;;5.17;3.90;;;;;;;;;;4966018;28;20213;-93
2023/04/30 06:31:04;;;;;;;3.20;2.90;;;;;;;;;;4980180;28;20206;-93
2023/04/30 06:33:51;;;;;;;3.53;3.33;;;;;;;;;;4982659;28;20309;-94
2023/04/30 06:36:32;;;;;;;9.70;3.33;;;;;;;;;;4986848;28;20206;-91
2023/04/30 06:39:06;;;;;;;3.90;3.17;;;;;;;;;;4978929;28;20212;-93
2023/04/30 06:41:46;;;;;;;3.37;3.17;;;;;;;;;;4980704;28;20231;-91
2023/04/30 06:44:24;;;;;;;3.63;3.40;;;;;;;;;;4982838;28;20240;-92
2023/04/30 06:46:58;;;;;;;4.05;3.75;;;;;;;;;;4987154;28;20197;-92
2023/04/30 06:49:40;;;;;;;5.65;4.28;;;;;;;;;;4988698;28;20202;-92
2023/04/30 06:52:12;;;;;;;5.25;3.85;;;;;;;;;;4981254;28;20216;-92
2023/04/30 06:54:42;;;;;;;6.07;4.13;;;;;;;;;;4977909;28;20230;-92
2023/04/30 06:57:15;;;;;;;5.28;4.50;;;;;;;;;;4976308;28;20285;-92
2023/04/30 06:59:49;;;;;;;5.55;4.53;;;;;;;;;;4984670;28;20201;-92
2023/04/30 07:02:25;;;;;;;4.70;4.28;;;;;;;;;;4978211;28;20210;-92
2023/04/30 07:04:53;;;;;;;5.75;5.15;;;;;;;;;;4985631;28;20223;-92
2023/04/30 07:10:35;;;;;;;6.00;4.38;;;;;;;;;;4971429;28;20238;-92
2023/04/30 07:13:12;;;;;;;4.43;3.67;;;;;;;;;;4963999;28;20210;-90
2023/04/30 07:21:07;;;;;;;7.05;3.88;;;;;;;;;;4984188;28;20206;-92
2023/04/30 07:24:09;;;;;;;8.10;5.22;;;;;;;;;;4974725;28;20199;-92
2023/04/30 07:29:51;;;;;;;3.65;2.92;;;;;;;;;;4957398;29;20298;-91
2023/04/30 07:32:41;;;;;;;12.13;3.47;;;;;;;;;;4953816;29;20228;-92
2023/04/30 07:35:24;;;;;;;2.88;2.67;;;;;;;;;;4955003;29;20237;-91
2023/04/30 07:38:03;;;;;;;2.45;2.25;;;;;;;;;;4955256;29;20215;-92
2023/04/30 07:40:34;;;;;;;2.72;2.63;;;;;;;;;;4954585;29;20586;-92
2023/04/30 07:43:14;;;;;;;2.90;2.65;;;;;;;;;;4953617;29;20211;-91
2023/04/30 07:45:49;;;;;;;4.75;2.90;;;;;;;;;;4955418;29;20752;-91
2023/04/30 07:52:03;;;;;;;3.78;3.10;;;;;;;;;;4916343;29;20336;-93
2023/04/30 07:54:43;;;;;;;3.05;2.80;;;;;;;;;;4954038;29;20319;-93
2023/04/30 07:57:16;;;;;;;2.38;2.17;;;;;;;;;;4954358;29;20661;-93
2023/04/30 07:59:54;;;;;;;2.45;2.28;;;;;;;;;;4953779;29;20210;-91
2023/04/30 08:02:27;;;;;;;2.85;2.05;;;;;;;;;;4954585;29;20338;-91
2023/04/30 08:05:03;;;;;;;1.88;1.77;;;;;;;;;;4953710;29;20210;-94
2023/04/30 08:07:47;;;;;;;2.25;2.10;;;;;;;;;;4956396;29;20687;-92
2023/04/30 08:10:24;;;;;;;3.47;1.88;;;;;;;;;;4985673;23;20224;-92
2023/04/30 08:13:00;;;;;;;3.70;2.17;;;;;;;;;;4992827;28;20215;-92
2023/04/30 08:15:41;;;;;;;1.40;1.20;;;;;;;;;;4993064;28;20232;-92
2023/04/30 08:18:19;;;;;;;1.63;1.52;;;;;;;;;;4997292;28;20244;-92
2023/04/30 08:21:03;;;;;;;1.38;1.23;;;;;;;;;;4993481;28;20207;-91
2023/04/30 08:23:50;;;;;;;1.38;1.30;;;;;;;;;;4980423;28;20228;-92
2023/04/30 08:27:04;;;;;;;1.67;1.58;;;;;;;;;;4952013;28;20238;-94
2023/04/30 08:35:15;;;;;;;1.75;1.65;;;;;;;;;;4963631;28;20320;-94
2023/04/30 08:37:57;;;;;;;1.92;1.70;;;;;;;;;;4982033;28;20230;-92
2023/04/30 08:40:39;;;;;;;2.00;1.90;;;;;;;;;;4997206;28;20284;-90
2023/04/30 08:43:19;;;;;;;1.92;1.83;;;;;;;;;;4997080;28;20213;-93
2023/04/30 08:46:11;;;;;;;1.50;1.40;;;;;;;;;;4996343;28;20288;-93
2023/04/30 08:48:40;;;;;;;1.15;1.15;;;;;;;;;;4987185;28;20197;-92
2023/04/30 08:51:15;;;;;;;1.17;1.17;;;;;;;;;;4997163;28;20200;-93
2023/04/30 08:56:32;;;;;;;1.65;1.50;;;;;;;;;;4995047;28;20229;-92
2023/04/30 08:59:21;;;;;;;1.00;1.00;;;;;;;;;;4995286;28;20244;-92
2023/04/30 09:02:00;;;;;;;1.73;1.20;;;;;;;;;;4936619;29;20204;-94
2023/04/30 09:07:24;;;;;;;1.42;1.27;;;;;;;;;;4926388;29;20207;-92
2023/04/30 09:10:02;;;;;;;1.73;1.63;;;;;;;;;;4934699;29;20279;-92
2023/04/30 09:12:34;;;;;;;1.40;1.30;;;;;;;;;;4935808;29;20708;-93
2023/04/30 09:15:16;;;;;;;1.13;1.13;;;;;;;;;;4934930;29;20373;-93
2023/04/30 09:18:07;;;;;;;1.20;1.20;;;;;;;;;;4933297;29;20282;-92
2023/04/30 09:20:55;;;;;;;;;;;;;;;;;;;;;
2023/04/30 09:23:27;;;;;;;1.02;1.02;;;;;;;;;;4985427;28;20202;-94
2023/04/30 09:26:00;;;;;;;1.60;1.60;;;;;;;;;;4986715;28;20758;-92
2023/04/30 09:29:08;;;;;;;;;;;;;;;;;;;;;
2023/04/30 09:31:38;;;;;;;1.35;1.27;;;;;;;;;;4985472;28;20224;-89
2023/04/30 09:34:27;;;;;;;2.00;1.90;;;;;;;;;;4982110;28;20205;-90
2023/04/30 09:37:03;;;;;;;1.42;1.42;;;;;;;;;;4975080;28;20485;-91
2023/04/30 09:39:48;;;;;;;1.40;1.40;;;;;;;;;;4974430;28;20206;-94
2023/04/30 09:42:28;;;;;;;1.38;1.38;;;;;;;;;;4975012;28;20202;-95
2023/04/30 09:45:03;;;;;;;1.85;1.35;;;;;;;;;;4975522;28;20216;-92
2023/04/30 09:47:37;;;;;;;1.45;1.45;;;;;;;;;;4975952;28;20194;-94
2023/04/30 09:50:32;;;;;;;1.75;1.60;;;;;;;;;;4977783;28;20247;-93
2023/04/30 09:53:23;;;;;;;1.58;1.48;;;;;;;;;;4979448;28;21305;-91
2023/04/30 09:56:02;;;;;;;1.70;1.70;;;;;;;;;;4976951;28;20246;-91
2023/04/30 09:58:39;;;;;;;1.80;1.80;;;;;;;;;;4992379;28;20225;-91
2023/04/30 10:01:12;;;;;;;1.83;1.73;;;;;;;;;;4993183;28;20713;-91
2023/04/30 10:03:39;;;;;;;2.20;1.70;;;;;;;;;;4989478;28;20730;-92
2023/04/30 10:06:24;;;;;;;1.25;1.23;;;;;;;;;;4982592;28;20253;-93
2023/04/30 10:09:00;;;;;;;1.58;1.58;;;;;;;;;;4995937;28;20236;-93
2023/04/30 10:11:42;;;;;;;;;;;;;;;;;;;;;
2023/04/30 10:14:18;;;;;;;2.40;1.27;;;;;;;;;;4976024;28;20225;-94
2023/04/30 10:16:58;;;;;;;1.20;1.20;;;;;;;;;;4980407;28;20242;-90
2023/04/30 10:19:29;;;;;;;1.40;1.40;;;;;;;;;;4985659;28;20230;-92
2023/04/30 10:22:11;;;;;;;1.50;1.40;;;;;;;;;;4982017;28;20222;-91
2023/04/30 10:25:01;;;;;;;2.05;1.73;;;;;;;;;;4978401;28;20273;-92
2023/04/30 10:27:37;;;;;;;2.05;1.48;;;;;;;;;;4976686;28;20281;-94
2023/04/30 10:30:06;;;;;;;1.13;1.13;;;;;;;;;;4979351;28;20237;-92
2023/04/30 10:32:46;;;;;;;1.60;1.50;;;;;;;;;;4979747;28;20202;-93
2023/04/30 10:35:21;;;;;;;1.50;1.40;;;;;;;;;;4982422;28;20221;-93
2023/04/30 10:38:08;;;;;;;1.73;1.50;;;;;;;;;;4994051;28;20190;-92
2023/04/30 10:40:42;;;;;;;1.48;1.38;;;;;;;;;;4993254;28;20213;-92
2023/04/30 10:43:25;;;;;;;1.50;1.43;;;;;;;;;;4977897;28;20220;-92
2023/04/30 10:45:58;;;;;;;2.23;2.03;;;;;;;;;;4977458;28;20222;-93
2023/04/30 10:48:30;;;;;;;2.13;1.97;;;;;;;;;;4976324;28;20204;-94
2023/04/30 10:51:05;;;;;;;2.97;2.10;;;;;;;;;;4975728;28;20224;-94
2023/04/30 10:53:49;;;;;;;1.55;1.55;;;;;;;;;;4980464;28;20254;-94
2023/04/30 10:56:46;;;;;;;1.38;1.35;;;;;;;;;;4983284;28;20239;-93
2023/04/30 10:59:21;;;;;;;3.35;1.38;;;;;;;;;;4976138;28;20277;-93
2023/04/30 11:01:58;;;;;;;1.67;1.67;;;;;;;;;;4979947;28;20204;-93
2023/04/30 11:04:51;;;;;;;1.50;1.50;;;;;;;;;;4977955;28;20273;-93
2023/04/30 11:07:36;;;;;;;2.67;1.55;;;;;;;;;;4984856;28;20208;-93
2023/04/30 11:10:11;;;;;;;4.85;1.48;;;;;;;;;;4981257;28;20225;-93
2023/04/30 11:13:09;;;;;;;1.17;1.17;;;;;;;;;;4999131;28;20196;-95
2023/04/30 11:16:16;;;;;;;1.63;1.33;;;;;;;;;;4984547;28;20322;-93
2023/04/30 11:22:07;;;;;;;1.20;1.10;;;;;;;;;;4960476;28;20646;-95
2023/04/30 11:24:56;;;;;;;1.58;1.55;;;;;;;;;;4996488;28;20205;-93
2023/04/30 11:27:35;;;;;;;1.63;1.52;;;;;;;;;;4999350;28;20201;-93
2023/04/30 11:30:19;;;;;;;1.45;1.45;;;;;;;;;;4998900;28;20672;-94
2023/04/30 11:32:53;;;;;;;1.73;1.65;;;;;;;;;;4997006;28;20208;-94
2023/04/30 11:35:24;;;;;;;5.68;3.70;;;;;;;;;;4998426;28;20201;-94
2023/04/30 11:37:59;;;;;;;1.35;1.35;;;;;;;;;;5008784;28;20225;-95
2023/04/30 11:43:32;;;;;;;1.15;1.15;;;;;;;;;;4933262;29;20293;-96
2023/04/30 11:46:21;;;;;;;1.42;1.42;;;;;;;;;;4989374;28;20197;-95
2023/04/30 11:48:58;;;;;;;1.45;1.20;;;;;;;;;;4997628;28;20197;-94
2023/04/30 11:51:43;;;;;;;1.40;1.40;;;;;;;;;;4998347;28;20205;-93
2023/04/30 11:54:19;;;;;;;1.10;1.10;;;;;;;;;;4997715;28;20623;-93
2023/04/30 11:57:01;;;;;;;1.63;1.58;;;;;;;;;;4998746;28;20232;-95
2023/04/30 11:59:37;;;;;;;1.30;1.30;;;;;;;;;;4997608;28;20189;-93
2023/04/30 12:02:22;;;;;;;1.58;1.30;;;;;;;;;;4997541;28;20197;-94
2023/04/30 12:18:21;;;;;;;1.80;1.70;;;;;;;;;;4944827;29;20358;-94
2023/04/30 12:21:06;;;;;;;1.73;1.63;;;;;;;;;;4955935;28;20321;-96
2023/04/30 12:23:37;;;;;;;0.80;0.80;;;;;;;;;;4996582;28;20197;-94
2023/04/30 12:26:19;;;;;;;1.05;1.05;;;;;;;;;;4999794;28;20207;-96
2023/04/30 12:28:57;;;;;;;2.88;1.80;;;;;;;;;;4993384;28;20679;-95
2023/04/30 12:31:40;;;;;;;1.88;1.30;;;;;;;;;;4983242;28;20235;-95
2023/04/30 12:37:16;;;;;;;0.70;0.70;;;;;;;;;;4982746;28;20232;-94
2023/04/30 12:40:06;;;;;;;0.60;0.60;;;;;;;;;;4988588;28;20222;-95
2023/04/30 12:42:39;;;;;;;1.20;1.13;;;;;;;;;;4976604;28;20204;-93
2023/04/30 12:45:14;;;;;;;0.93;0.93;;;;;;;;;;4984626;28;20208;-94
2023/04/30 12:50:56;;;;;;;1.10;1.10;;;;;;;;;;4968544;28;20238;-94
2023/04/30 12:57:08;;;;;;;1.08;1.00;;;;;;;;;;4992708;28;20233;-94
2023/04/30 13:02:47;;;;;;;1.13;1.08;;;;;;;;;;4998461;28;20205;-95
2023/04/30 13:05:20;;;;;;;0.80;0.80;;;;;;;;;;4999468;28;20246;-95
2023/04/30 13:07:54;;;;;;;1.65;1.55;;;;;;;;;;5000073;28;20203;-93
2023/04/30 13:10:49;;;;;;;0.95;0.95;;;;;;;;;;4983818;28;20230;-93
2023/04/30 13:16:30;;;;;;;1.77;1.17;;;;;;;;;;4978438;28;20239;-96
2023/04/30 13:19:13;;;;;;;0.93;0.93;;;;;;;;;;4973477;28;20274;-94
2023/04/30 13:22:00;;;;;;;1.17;1.00;;;;;;;;;;4965578;28;20208;-94
2023/04/30 13:24:36;;;;;;;1.05;0.90;;;;;;;;;;4980396;28;20213;-95
2023/04/30 13:27:22;;;;;;;0.95;0.95;;;;;;;;;;4984665;28;20212;-94
2023/04/30 13:30:04;;;;;;;0.90;0.90;;;;;;;;;;4991516;28;20261;-94
2023/04/30 13:32:45;;;;;;;1.33;1.10;;;;;;;;;;4993155;28;20206;-96
2023/04/30 13:38:14;;;;;;;1.75;1.38;;;;;;;;;;4983015;28;20300;-93
2023/04/30 13:40:49;;;;;;;0.90;0.90;;;;;;;;;;4981649;28;20205;-93
2023/04/30 13:43:48;;;;;;;0.88;0.88;;;;;;;;;;4984501;28;20209;-93
2023/04/30 13:46:39;;;;;;;1.08;0.98;;;;;;;;;;4986329;28;20208;-94
2023/04/30 13:52:40;;;;;;;0.82;0.82;;;;;;;;;;4979433;28;20234;-93
2023/04/30 13:55:34;;;;;;;;;;;;;;;;;;;;;
2023/04/30 14:01:43;;;;;;;;;;;;;;;;;;;;;
2023/04/30 14:04:30;;;;;;;1.13;1.10;;;;;;;;;;4980664;28;20202;-95
2023/04/30 14:06:58;;;;;;;1.25;1.15;;;;;;;;;;4973065;28;20202;-93
2023/04/30 14:09:55;;;;;;;0.90;0.90;;;;;;;;;;4980624;28;20202;-95
2023/04/30 14:12:30;;;;;;;1.10;1.10;;;;;;;;;;4934438;28;20681;-96
2023/04/30 14:15:09;;;;;;;;;;;;;;;;;;;;;
2023/04/30 14:18:06;;;;;;;1.45;1.35;;;;;;;;;;4979986;28;20618;-94
2023/04/30 14:20:39;;;;;;;1.10;1.10;;;;;;;;;;4979809;28;20267;-94
2023/04/30 14:23:21;;;;;;;0.90;0.90;;;;;;;;;;4979765;28;20202;-93
2023/04/30 14:25:52;;;;;;;1.15;1.05;;;;;;;;;;4980527;28;20213;-92
2023/04/30 14:31:29;;;;;;;1.50;1.40;;;;;;;;;;4980809;28;20207;-96
2023/04/30 14:34:08;;;;;;;1.35;1.27;;;;;;;;;;4984705;28;20269;-92
2023/04/30 14:36:45;;;;;;;0.93;0.93;;;;;;;;;;4979236;28;20233;-95
2023/04/30 14:39:32;;;;;;;0.93;0.93;;;;;;;;;;4981652;28;20263;-94
2023/04/30 14:42:08;;;;;;;1.02;1.02;;;;;;;;;;4978926;28;20233;-94
2023/04/30 14:44:45;;;;;;;0.98;0.98;;;;;;;;;;4979992;28;20200;-95
2023/04/30 14:47:25;;;;;;;1.10;1.10;;;;;;;;;;4978950;28;20444;-95
2023/04/30 14:50:08;;;;;;;0.73;0.73;;;;;;;;;;4979872;28;20487;-95
2023/04/30 14:52:53;;;;;;;0.82;0.80;;;;;;;;;;4978714;28;20201;-94
2023/04/30 14:55:38;;;;;;;0.70;0.70;;;;;;;;;;4979630;28;20201;-95
2023/04/30 14:58:22;;;;;;;0.93;0.93;;;;;;;;;;4986313;28;20300;-95
2023/04/30 15:03:47;;;;;;;1.15;1.15;;;;;;;;;;4970667;28;20610;-95
2023/04/30 15:06:35;;;;;;;1.08;0.80;;;;;;;;;;4980221;28;20200;-95
2023/04/30 15:12:36;;;;;;;;;;;;;;;;;;;;;
2023/04/30 15:21:27;;;;;;;1.05;1.00;;;;;;;;;;5006273;28;20219;-94
2023/04/30 15:27:40;;;;;;;1.20;1.17;;;;;;;;;;4955356;29;20231;-95
2023/04/30 15:33:50;;;;;;;2.80;0.88;;;;;;;;;;5005126;28;20208;-94
2023/04/30 15:39:13;;;;;;;0.93;0.93;;;;;;;;;;4992548;28;20205;-95
2023/04/30 15:42:04;;;;;;;1.10;1.00;;;;;;;;;;5004915;28;20733;-92
2023/04/30 15:44:43;;;;;;;1.65;1.00;;;;;;;;;;5002556;28;20664;-95
2023/04/30 15:50:16;;;;;;;1.20;1.15;;;;;;;;;;5001240;28;20239;-96
2023/04/30 15:58:25;;;;;;;1.38;0.90;;;;;;;;;;4993172;28;20235;-93
2023/04/30 16:00:57;;;;;;;1.50;1.20;;;;;;;;;;4996950;28;20224;-94
2023/04/30 16:03:30;;;;;;;1.30;1.30;;;;;;;;;;4998257;28;20265;-95
2023/04/30 16:06:13;;;;;;;1.85;1.48;;;;;;;;;;4997652;28;20200;-96
2023/04/30 16:11:45;;;;;;;1.10;1.00;;;;;;;;;;4968814;28;20242;-93
2023/04/30 16:14:20;;;;;;;1.73;1.02;;;;;;;;;;4997595;28;20271;-92
2023/04/30 16:16:58;;;;;;;3.40;1.40;;;;;;;;;;4998254;28;20204;-94
2023/04/30 16:19:37;;;;;;;1.52;1.42;;;;;;;;;;4998660;28;20211;-94
2023/04/30 16:24:49;;;;;;;1.48;1.38;;;;;;;;;;4965191;28;20232;-93
2023/04/30 16:27:29;;;;;;;1.80;1.70;;;;;;;;;;4968848;29;20548;-93
2023/04/30 16:32:51;;;;;;;2.22;2.00;;;;;;;;;;4959206;29;20277;-94
2023/04/30 16:35:33;;;;;;;2.03;1.92;;;;;;;;;;4958880;29;20236;-94
2023/04/30 16:41:07;;;;;;;1.30;1.30;;;;;;;;;;4954649;29;20203;-94
2023/04/30 16:46:47;;;;;;;1.65;1.55;;;;;;;;;;4965422;29;20198;-93
2023/04/30 16:49:51;;;;;;;1.45;1.27;;;;;;;;;;4961307;29;20229;-96
2023/04/30 16:52:19;;;;;;;1.58;1.48;;;;;;;;;;4957559;29;20202;-93
2023/04/30 16:54:56;;;;;;;1.38;1.38;;;;;;;;;;4963195;28;20213;-95
2023/04/30 16:57:47;;;;;;;1.85;1.75;;;;;;;;;;4963698;29;20241;-95
2023/04/30 17:00:34;;;;;;;1.77;1.67;;;;;;;;;;4959439;29;20214;-95
2023/04/30 17:08:55;;;;;;;1.67;1.58;;;;;;;;;;4963510;29;20217;-95
2023/04/30 17:11:35;;;;;;;4.22;3.10;;;;;;;;;;4978669;28;20243;-93
2023/04/30 17:14:13;;;;;;;4.28;3.83;;;;;;;;;;4993845;28;20200;-95
2023/04/30 17:17:09;;;;;;;2.80;2.60;;;;;;;;;;4984175;28;20223;-94
2023/04/30 17:19:48;;;;;;;5.35;2.30;;;;;;;;;;4940144;29;20201;-94
2023/04/30 17:22:31;;;;;;;2.17;2.03;;;;;;;;;;4940440;29;20200;-93
2023/04/30 17:28:28;;;;;;;5.60;3.93;;;;;;;;;;4891831;28;20219;-95
2023/04/30 17:34:37;;;;;;;5.80;4.17;;;;;;;;;;4976863;28;20583;-95
2023/04/30 17:49:55;;;;;;;5.27;2.87;;;;;;;;;;4970839;28;20584;-93
2023/04/30 17:58:50;;;;;;;3.27;2.87;;;;;;;;;;5093388;28;21045;-94
2023/04/30 18:01:27;;;;;;;4.00;2.93;;;;;;;;;;5093479;28;20194;-93
2023/04/30 18:04:06;;;;;;;3.13;2.47;;;;;;;;;;5093869;28;20211;-94
2023/04/30 18:06:49;;;;;;;3.00;2.83;;;;;;;;;;5093070;28;20204;-94
2023/04/30 18:12:09;;;;;;;2.50;2.40;;;;;;;;;;5095244;28;20289;-95
2023/04/30 18:21:44;;;;;;;1.60;1.50;;;;;;;;;;5087333;28;20202;-94
2023/04/30 18:24:20;;;;;;;2.43;2.23;;;;;;;;;;5095082;28;20200;-95
2023/04/30 18:27:17;;;;;;;2.37;2.17;;;;;;;;;;5098802;28;20223;-94
2023/04/30 18:44:40;;;;;;;2.60;2.40;;;;;;;;;;5076326;22;20239;-95
2023/04/30 18:50:22;;;;;;;1.60;1.37;;;;;;;;;;5046640;28;20202;-94
2023/04/30 18:56:32;;;;;;;1.67;1.67;;;;;;;;;;4993824;28;20727;-93
2023/04/30 18:59:20;;;;;;;;;;;;;;;;;;;;;
2023/04/30 19:14:05;;;;;;;2.73;2.43;;;;;;;;;;5035193;28;20250;-93
2023/04/30 19:16:44;;;;;;;2.97;2.77;;;;;;;;;;5038476;28;20275;-95
2023/04/30 19:21:59;;;;;;;2.80;2.27;;;;;;;;;;5251750;22;20215;-93
2023/04/30 19:24:39;;;;;;;2.87;2.50;;;;;;;;;;5152975;22;20234;-93
2023/04/30 19:27:12;;;;;;;2.10;1.77;;;;;;;;;;5067295;28;20283;-96
2023/04/30 19:36:47;;;;;;;;;;;;;;;;;;;;;
2023/04/30 19:51:09;;;;;;;1.30;1.30;;;;;;;;;;5070199;28;20668;-94